Time;durP1;ratioP1;P1;durP2;ratioP2;P2;SDS_P1;SDS_P2;PMS_P1;PMS_P2;Temp;Humidity;BMP_temperature;BMP_pressure;BME280_temperature;BME280_humidity;BME280_pressure;Samples;Min_cycle;Max_cycle;Signal;HPM_P1;HPM_P2
2022/08/03 00:01:27;;;;;;;12.80;3.40;;;;;;;;;;5068554;28;20020;-66
2022/08/03 00:03:53;;;;;;;10.45;2.80;;;;;;;;;;5064438;28;20467;-66
2022/08/03 00:06:19;;;;;;;15.48;2.90;;;;;;;;;;5070037;28;20127;-67
2022/08/03 00:08:45;;;;;;;10.50;2.92;;;;;;;;;;5070000;28;20036;-67
2022/08/03 00:11:12;;;;;;;13.50;4.00;;;;;;;;;;5073878;28;20024;-67
2022/08/03 00:13:38;;;;;;;7.55;2.13;;;;;;;;;;5074284;28;20536;-68
2022/08/03 00:16:04;;;;;;;9.05;2.10;;;;;;;;;;5074206;28;20399;-67
2022/08/03 00:18:30;;;;;;;8.25;1.92;;;;;;;;;;5072828;28;20100;-67
2022/08/03 00:20:56;;;;;;;8.32;2.03;;;;;;;;;;5074065;28;20032;-67
2022/08/03 00:23:22;;;;;;;6.13;1.60;;;;;;;;;;5073342;28;20101;-66
2022/08/03 00:25:48;;;;;;;13.15;2.30;;;;;;;;;;5074358;28;20029;-66
2022/08/03 00:28:14;;;;;;;10.75;2.83;;;;;;;;;;5073312;28;20028;-67
2022/08/03 00:30:40;;;;;;;7.72;1.70;;;;;;;;;;5061386;28;20498;-67
2022/08/03 00:33:09;;;;;;;10.70;1.40;;;;;;;;;;5072903;28;20464;-66
2022/08/03 00:35:35;;;;;;;7.13;1.85;;;;;;;;;;5072933;28;20039;-67
2022/08/03 00:38:01;;;;;;;3.65;1.40;;;;;;;;;;5073102;28;20019;-66
2022/08/03 00:40:27;;;;;;;6.75;1.40;;;;;;;;;;5073755;28;20572;-67
2022/08/03 00:42:57;;;;;;;5.57;1.67;;;;;;;;;;5073737;28;20027;-66
2022/08/03 00:45:24;;;;;;;8.90;1.90;;;;;;;;;;5072761;28;20387;-67
2022/08/03 00:47:50;;;;;;;8.02;1.88;;;;;;;;;;5073676;28;20149;-66
2022/08/03 00:50:16;;;;;;;5.15;1.98;;;;;;;;;;5073289;28;20048;-66
2022/08/03 00:52:42;;;;;;;10.50;1.80;;;;;;;;;;5072748;28;20103;-67
2022/08/03 00:55:09;;;;;;;12.05;1.65;;;;;;;;;;5073386;28;20444;-66
2022/08/03 00:57:35;;;;;;;11.15;2.20;;;;;;;;;;5073255;28;20059;-66
2022/08/03 01:00:01;;;;;;;12.57;2.13;;;;;;;;;;5073493;28;20039;-67
2022/08/03 01:02:30;;;;;;;8.27;1.73;;;;;;;;;;5071967;28;20032;-66
2022/08/03 01:04:56;;;;;;;11.35;2.30;;;;;;;;;;5083187;28;20070;-68
2022/08/03 01:07:22;;;;;;;7.68;1.58;;;;;;;;;;5075158;28;20043;-67
2022/08/03 01:10:07;;;;;;;13.13;2.15;;;;;;;;;;5060925;28;20047;-67
2022/08/03 01:12:52;;;;;;;11.73;2.20;;;;;;;;;;5079003;28;20028;-67
2022/08/03 01:15:26;;;;;;;7.03;1.98;;;;;;;;;;5079369;28;20379;-67
2022/08/03 01:17:57;;;;;;;14.88;3.83;;;;;;;;;;5072721;28;20038;-67
2022/08/03 01:20:24;;;;;;;10.95;2.83;;;;;;;;;;5080811;28;20039;-66
2022/08/03 01:23:05;;;;;;;13.38;1.88;;;;;;;;;;5078098;28;20025;-66
2022/08/03 01:25:35;;;;;;;13.45;2.10;;;;;;;;;;5075981;28;20028;-67
2022/08/03 01:28:19;;;;;;;12.65;1.90;;;;;;;;;;5071759;28;20391;-66
2022/08/03 01:30:46;;;;;;;18.67;2.92;;;;;;;;;;5075650;28;20032;-67
2022/08/03 01:33:12;;;;;;;14.52;2.20;;;;;;;;;;5071418;28;20020;-67
2022/08/03 01:35:41;;;;;;;11.50;1.80;;;;;;;;;;5072644;28;20095;-67
2022/08/03 01:38:10;;;;;;;15.70;2.45;;;;;;;;;;5072243;28;20027;-66
2022/08/03 01:40:36;;;;;;;12.90;2.20;;;;;;;;;;5071282;28;20368;-67
2022/08/03 01:43:03;;;;;;;9.40;2.10;;;;;;;;;;5072622;28;20032;-67
2022/08/03 01:45:29;;;;;;;9.02;2.05;;;;;;;;;;5072552;28;20048;-67
2022/08/03 01:47:55;;;;;;;9.82;2.00;;;;;;;;;;5072404;28;20021;-67
2022/08/03 01:50:22;;;;;;;7.60;2.10;;;;;;;;;;5071854;28;20380;-66
2022/08/03 01:52:48;;;;;;;9.30;2.00;;;;;;;;;;5071005;28;20076;-67
2022/08/03 01:55:14;;;;;;;9.00;2.13;;;;;;;;;;5072047;28;20029;-67
2022/08/03 01:57:40;;;;;;;14.90;2.45;;;;;;;;;;5074089;28;20044;-67
2022/08/03 02:00:10;;;;;;;11.15;2.10;;;;;;;;;;5082485;28;20036;-66
2022/08/03 02:02:36;;;;;;;11.82;3.72;;;;;;;;;;5073690;28;20040;-67
2022/08/03 02:05:03;;;;;;;18.65;3.28;;;;;;;;;;5070292;28;20024;-67
2022/08/03 02:07:29;;;;;;;12.00;2.60;;;;;;;;;;5078886;28;20024;-67
2022/08/03 02:09:55;;;;;;;11.35;2.75;;;;;;;;;;5082155;28;20457;-66
2022/08/03 02:12:22;;;;;;;8.90;2.45;;;;;;;;;;5073898;28;20039;-67
2022/08/03 02:14:48;;;;;;;17.70;2.58;;;;;;;;;;5071320;28;20042;-67
2022/08/03 02:17:14;;;;;;;13.15;3.10;;;;;;;;;;5075866;28;20033;-67
2022/08/03 02:19:40;;;;;;;8.15;2.03;;;;;;;;;;5082806;28;20114;-66
2022/08/03 02:22:08;;;;;;;13.93;3.33;;;;;;;;;;5070032;28;20033;-66
2022/08/03 02:24:34;;;;;;;18.23;3.03;;;;;;;;;;5075320;28;20036;-66
2022/08/03 02:27:00;;;;;;;20.08;2.15;;;;;;;;;;5087388;28;20484;-67
2022/08/03 02:29:27;;;;;;;14.73;2.42;;;;;;;;;;5076096;28;20028;-67
2022/08/03 02:31:53;;;;;;;20.08;3.38;;;;;;;;;;5071730;28;20020;-67
2022/08/03 02:34:19;;;;;;;17.65;2.63;;;;;;;;;;5077384;28;20032;-67
2022/08/03 02:36:46;;;;;;;13.40;3.40;;;;;;;;;;5076060;28;20078;-67
2022/08/03 02:39:13;;;;;;;10.77;2.47;;;;;;;;;;5086527;28;20149;-67
2022/08/03 02:41:43;;;;;;;10.90;2.28;;;;;;;;;;5090107;28;20463;-67
2022/08/03 02:44:09;;;;;;;9.27;2.38;;;;;;;;;;5083009;28;20028;-67
2022/08/03 02:46:39;;;;;;;15.70;2.90;;;;;;;;;;5080093;28;20028;-67
2022/08/03 02:49:05;;;;;;;16.48;2.30;;;;;;;;;;5077333;28;20037;-66
2022/08/03 02:51:32;;;;;;;14.48;3.85;;;;;;;;;;5072626;28;20047;-66
2022/08/03 02:53:58;;;;;;;9.20;2.63;;;;;;;;;;5069253;28;20031;-66
2022/08/03 02:56:24;;;;;;;20.70;2.65;;;;;;;;;;5078111;28;20021;-67
2022/08/03 02:58:51;;;;;;;12.95;2.58;;;;;;;;;;5084013;28;20025;-67
2022/08/03 03:01:19;;;;;;;9.45;2.25;;;;;;;;;;5063531;28;20405;-66
2022/08/03 03:03:45;;;;;;;18.58;2.53;;;;;;;;;;5082295;28;20025;-67
2022/08/03 03:06:11;;;;;;;12.27;2.40;;;;;;;;;;5069628;28;20487;-66
2022/08/03 03:08:37;;;;;;;18.60;2.70;;;;;;;;;;5082607;28;20521;-66
2022/08/03 03:11:03;;;;;;;15.15;2.35;;;;;;;;;;5073456;28;20489;-66
2022/08/03 03:13:29;;;;;;;11.02;2.17;;;;;;;;;;5088189;28;20471;-67
2022/08/03 03:15:56;;;;;;;24.10;4.38;;;;;;;;;;5085782;28;20136;-67
2022/08/03 03:18:22;;;;;;;15.18;2.35;;;;;;;;;;5071671;28;20033;-67
2022/08/03 03:20:49;;;;;;;17.73;3.15;;;;;;;;;;5082562;28;20410;-67
2022/08/03 03:23:15;;;;;;;17.50;4.03;;;;;;;;;;5078087;28;20029;-67
2022/08/03 03:25:41;;;;;;;16.70;2.28;;;;;;;;;;5085743;28;20400;-66
2022/08/03 03:28:07;;;;;;;15.32;2.83;;;;;;;;;;5074634;28;20039;-66
2022/08/03 03:30:33;;;;;;;25.70;2.92;;;;;;;;;;5085589;28;20043;-67
2022/08/03 03:32:59;;;;;;;13.63;2.20;;;;;;;;;;5084392;28;20020;-66
2022/08/03 03:35:26;;;;;;;29.35;3.00;;;;;;;;;;5072658;28;20046;-66
2022/08/03 03:37:52;;;;;;;17.95;2.92;;;;;;;;;;5090680;28;20024;-66
2022/08/03 03:40:18;;;;;;;17.00;2.50;;;;;;;;;;5077799;28;20523;-66
2022/08/03 03:42:44;;;;;;;14.90;3.72;;;;;;;;;;5070325;28;20028;-67
2022/08/03 03:45:11;;;;;;;22.25;3.25;;;;;;;;;;5061878;28;20025;-67
2022/08/03 03:47:37;;;;;;;14.93;3.05;;;;;;;;;;5088016;28;20024;-67
2022/08/03 03:50:03;;;;;;;23.02;3.17;;;;;;;;;;5068747;28;20124;-67
2022/08/03 03:52:29;;;;;;;19.67;2.80;;;;;;;;;;5070735;28;20033;-67
2022/08/03 03:54:55;;;;;;;23.65;2.80;;;;;;;;;;5079254;28;20069;-66
2022/08/03 03:57:21;;;;;;;27.30;4.20;;;;;;;;;;5069362;28;20032;-67
2022/08/03 03:59:47;;;;;;;21.35;2.90;;;;;;;;;;5079014;28;20028;-66
2022/08/03 04:02:14;;;;;;;23.75;3.22;;;;;;;;;;5076166;28;20554;-67
2022/08/03 04:12:55;;;;;;;26.42;3.83;;;;;;;;;;5083071;28;20086;-67
2022/08/03 04:15:21;;;;;;;16.30;3.10;;;;;;;;;;5072255;28;20035;-67
2022/08/03 04:17:49;;;;;;;24.83;3.72;;;;;;;;;;5069088;28;20024;-67
2022/08/03 04:20:15;;;;;;;30.80;2.90;;;;;;;;;;5061872;28;20032;-67
2022/08/03 04:22:41;;;;;;;13.65;2.70;;;;;;;;;;5078404;28;20025;-67
2022/08/03 04:25:08;;;;;;;35.78;5.07;;;;;;;;;;5082150;28;20032;-67
2022/08/03 04:27:36;;;;;;;23.38;3.53;;;;;;;;;;5075187;28;20043;-67
2022/08/03 04:30:02;;;;;;;21.73;3.17;;;;;;;;;;5088049;28;20067;-67
2022/08/03 04:32:28;;;;;;;26.92;4.15;;;;;;;;;;5088821;28;20039;-67
2022/08/03 04:34:54;;;;;;;26.45;5.53;;;;;;;;;;5076557;28;20081;-66
2022/08/03 04:37:29;;;;;;;19.70;2.90;;;;;;;;;;5068343;28;20024;-67
2022/08/03 04:39:56;;;;;;;21.67;3.28;;;;;;;;;;5079659;28;20039;-67
2022/08/03 04:42:22;;;;;;;15.18;3.00;;;;;;;;;;5071968;28;20036;-67
2022/08/03 04:44:48;;;;;;;29.85;3.28;;;;;;;;;;5069368;28;20040;-66
2022/08/03 04:47:14;;;;;;;21.60;4.18;;;;;;;;;;5077747;28;20486;-67
2022/08/03 04:49:40;;;;;;;16.73;2.35;;;;;;;;;;5055104;28;20056;-66
2022/08/03 04:52:07;;;;;;;24.00;2.72;;;;;;;;;;5068658;28;20020;-67
2022/08/03 04:54:42;;;;;;;18.42;2.92;;;;;;;;;;5069319;28;20016;-66
2022/08/03 04:57:08;;;;;;;21.00;3.25;;;;;;;;;;5074057;28;20483;-67
2022/08/03 04:59:34;;;;;;;20.45;3.13;;;;;;;;;;5083350;28;20047;-66
2022/08/03 05:02:00;;;;;;;21.85;2.78;;;;;;;;;;5081546;28;20395;-66
2022/08/03 05:04:26;;;;;;;15.32;3.20;;;;;;;;;;5091761;28;20047;-67
2022/08/03 05:06:52;;;;;;;25.58;3.70;;;;;;;;;;5089568;28;20028;-67
2022/08/03 05:09:19;;;;;;;24.58;3.53;;;;;;;;;;5078976;28;20064;-67
2022/08/03 05:11:45;;;;;;;17.88;2.70;;;;;;;;;;5089607;28;20191;-67
2022/08/03 05:14:11;;;;;;;28.60;4.68;;;;;;;;;;5090171;28;20065;-67
2022/08/03 05:16:37;;;;;;;13.70;3.45;;;;;;;;;;5093156;28;20102;-67
2022/08/03 05:19:03;;;;;;;21.63;2.53;;;;;;;;;;5088208;28;20020;-67
2022/08/03 05:21:29;;;;;;;25.60;3.53;;;;;;;;;;5072752;28;20028;-67
2022/08/03 05:23:55;;;;;;;26.80;3.47;;;;;;;;;;5069685;28;20064;-67
2022/08/03 05:26:21;;;;;;;23.35;2.50;;;;;;;;;;5072739;28;20236;-66
2022/08/03 05:28:47;;;;;;;16.38;2.70;;;;;;;;;;5073166;28;20025;-67
2022/08/03 05:31:13;;;;;;;13.25;2.58;;;;;;;;;;5092923;28;20372;-66
2022/08/03 05:33:39;;;;;;;20.65;3.05;;;;;;;;;;5091033;28;20012;-67
2022/08/03 05:36:06;;;;;;;17.88;2.92;;;;;;;;;;5091833;28;20031;-67
2022/08/03 05:38:32;;;;;;;16.88;2.03;;;;;;;;;;5092885;28;20020;-67
2022/08/03 05:40:58;;;;;;;23.92;2.58;;;;;;;;;;5091065;28;20118;-66
2022/08/03 05:43:24;;;;;;;27.65;3.08;;;;;;;;;;5092826;28;20403;-67
2022/08/03 05:45:50;;;;;;;15.85;2.35;;;;;;;;;;5090131;28;20024;-66
2022/08/03 05:48:16;;;;;;;12.68;2.50;;;;;;;;;;5062195;28;20032;-65
2022/08/03 05:50:42;;;;;;;14.25;2.38;;;;;;;;;;5064027;28;20083;-65
2022/08/03 05:53:08;;;;;;;13.15;2.22;;;;;;;;;;5081654;28;20020;-65
2022/08/03 05:55:34;;;;;;;15.35;2.17;;;;;;;;;;5080438;28;20033;-65
2022/08/03 05:58:02;;;;;;;19.70;2.10;;;;;;;;;;5070428;28;20143;-65
2022/08/03 06:00:29;;;;;;;8.52;1.85;;;;;;;;;;5071818;28;20023;-65
2022/08/03 06:02:56;;;;;;;20.50;2.00;;;;;;;;;;5071640;28;20103;-65
2022/08/03 06:05:22;;;;;;;11.63;2.15;;;;;;;;;;5084565;28;20040;-65
2022/08/03 06:07:48;;;;;;;11.50;1.70;;;;;;;;;;5092160;28;20081;-64
2022/08/03 06:10:14;;;;;;;10.57;2.80;;;;;;;;;;5072443;28;20120;-64
2022/08/03 06:12:40;;;;;;;13.38;2.28;;;;;;;;;;5071668;28;20028;-65
2022/08/03 06:15:06;;;;;;;18.35;2.75;;;;;;;;;;5086138;28;20039;-64
2022/08/03 06:17:32;;;;;;;15.80;2.78;;;;;;;;;;5090036;28;20103;-64
2022/08/03 06:19:58;;;;;;;13.35;3.03;;;;;;;;;;5084684;28;20016;-65
2022/08/03 06:22:24;;;;;;;13.43;2.65;;;;;;;;;;5074086;28;20052;-64
2022/08/03 06:24:50;;;;;;;18.77;3.95;;;;;;;;;;5071797;28;20021;-64
2022/08/03 06:27:16;;;;;;;11.88;2.60;;;;;;;;;;5081890;28;20024;-64
2022/08/03 06:29:42;;;;;;;13.40;2.45;;;;;;;;;;5091580;28;20344;-64
2022/08/03 06:32:08;;;;;;;15.68;2.70;;;;;;;;;;5090239;28;20023;-64
2022/08/03 06:34:35;;;;;;;16.70;2.65;;;;;;;;;;5073337;28;20067;-64
2022/08/03 06:37:01;;;;;;;27.15;3.53;;;;;;;;;;5077715;28;20458;-64
2022/08/03 06:39:27;;;;;;;13.68;2.50;;;;;;;;;;5091486;28;20111;-64
2022/08/03 06:41:53;;;;;;;16.98;2.47;;;;;;;;;;5089599;28;20028;-65
2022/08/03 06:44:19;;;;;;;17.17;2.53;;;;;;;;;;5073991;28;20036;-64
2022/08/03 06:46:46;;;;;;;23.83;3.45;;;;;;;;;;5075649;28;20482;-65
2022/08/03 06:49:12;;;;;;;16.20;2.40;;;;;;;;;;5071717;28;20029;-65
2022/08/03 06:51:39;;;;;;;19.30;2.95;;;;;;;;;;5070431;28;20039;-64
2022/08/03 06:54:06;;;;;;;18.17;2.55;;;;;;;;;;5070911;28;20020;-64
2022/08/03 06:56:32;;;;;;;13.23;2.25;;;;;;;;;;5080202;28;20016;-65
2022/08/03 06:58:58;;;;;;;19.38;2.80;;;;;;;;;;5091398;28;20020;-65
2022/08/03 07:01:25;;;;;;;16.58;3.75;;;;;;;;;;5083016;28;20032;-64
2022/08/03 07:03:53;;;;;;;13.65;2.10;;;;;;;;;;5071015;28;20498;-65
2022/08/03 07:06:19;;;;;;;15.73;2.53;;;;;;;;;;5073932;28;20098;-64
2022/08/03 07:08:45;;;;;;;13.45;2.33;;;;;;;;;;5089899;28;20058;-64
2022/08/03 07:11:11;;;;;;;16.15;2.13;;;;;;;;;;5090952;28;20391;-65
2022/08/03 07:13:40;;;;;;;8.57;1.80;;;;;;;;;;5087841;28;20024;-65
2022/08/03 07:16:06;;;;;;;10.57;1.95;;;;;;;;;;5073335;28;20067;-65
2022/08/03 07:18:32;;;;;;;21.45;4.68;;;;;;;;;;5072802;28;20384;-65
2022/08/03 07:20:58;;;;;;;14.10;2.28;;;;;;;;;;5070167;28;20025;-65
2022/08/03 07:23:24;;;;;;;14.35;2.10;;;;;;;;;;5070051;28;20111;-65
2022/08/03 07:25:50;;;;;;;13.00;2.40;;;;;;;;;;5075120;28;20479;-65
2022/08/03 07:28:16;;;;;;;12.07;3.17;;;;;;;;;;5072375;28;20039;-65
2022/08/03 07:30:42;;;;;;;14.43;2.22;;;;;;;;;;5073609;28;20051;-65
2022/08/03 07:33:08;;;;;;;8.35;1.73;;;;;;;;;;5071076;28;20497;-65
2022/08/03 07:35:34;;;;;;;19.88;2.10;;;;;;;;;;5069308;28;20013;-65
2022/08/03 07:38:00;;;;;;;15.20;1.80;;;;;;;;;;5069234;28;20028;-65
2022/08/03 07:40:26;;;;;;;15.52;2.17;;;;;;;;;;5070176;28;20035;-65
2022/08/03 07:42:52;;;;;;;11.70;1.67;;;;;;;;;;5070306;28;20029;-65
2022/08/03 07:45:20;;;;;;;9.23;1.65;;;;;;;;;;5076511;28;20028;-66
2022/08/03 07:47:46;;;;;;;12.82;1.85;;;;;;;;;;5081397;28;20021;-65
2022/08/03 07:50:12;;;;;;;12.82;1.48;;;;;;;;;;5070324;28;20052;-65
2022/08/03 07:52:51;;;;;;;12.48;2.30;;;;;;;;;;5072090;28;20392;-65
2022/08/03 07:55:21;;;;;;;12.77;1.80;;;;;;;;;;5081967;28;21398;-65
2022/08/03 07:57:47;;;;;;;11.88;1.73;;;;;;;;;;5081132;28;20032;-65
2022/08/03 08:00:17;;;;;;;13.38;1.75;;;;;;;;;;5074944;28;20400;-65
2022/08/03 08:02:43;;;;;;;11.38;1.67;;;;;;;;;;5069757;28;20024;-65
2022/08/03 08:05:09;;;;;;;15.13;2.88;;;;;;;;;;5069310;28;20028;-66
2022/08/03 08:07:36;;;;;;;7.68;1.38;;;;;;;;;;5069987;28;20104;-66
2022/08/03 08:10:03;;;;;;;7.90;1.08;;;;;;;;;;5070122;28;20290;-66
2022/08/03 08:12:29;;;;;;;10.23;1.38;;;;;;;;;;5069677;28;20020;-66
2022/08/03 08:14:56;;;;;;;12.52;1.13;;;;;;;;;;5065234;28;20017;-67
2022/08/03 08:17:22;;;;;;;8.95;1.48;;;;;;;;;;5070166;28;20024;-67
2022/08/03 08:19:48;;;;;;;8.07;1.10;;;;;;;;;;5069863;28;20099;-66
2022/08/03 08:22:14;;;;;;;5.40;1.38;;;;;;;;;;5070110;28;20023;-66
2022/08/03 08:24:42;;;;;;;4.97;1.35;;;;;;;;;;5069562;28;20095;-66
2022/08/03 08:27:10;;;;;;;4.18;1.02;;;;;;;;;;5070063;28;20024;-66
2022/08/03 08:29:37;;;;;;;10.05;2.38;;;;;;;;;;5069252;28;20445;-66
2022/08/03 08:32:03;;;;;;;6.38;1.13;;;;;;;;;;5070332;28;20028;-67
2022/08/03 08:34:29;;;;;;;7.53;1.40;;;;;;;;;;5073428;28;20032;-66
2022/08/03 08:36:55;;;;;;;7.38;1.30;;;;;;;;;;5073870;28;20433;-66
2022/08/03 08:39:21;;;;;;;4.63;1.02;;;;;;;;;;5073770;28;20044;-66
2022/08/03 08:41:50;;;;;;;10.75;1.73;;;;;;;;;;5073267;28;20036;-65
2022/08/03 08:44:16;;;;;;;12.80;1.95;;;;;;;;;;5073511;28;20021;-66
2022/08/03 08:46:42;;;;;;;7.90;1.23;;;;;;;;;;5073492;28;20099;-66
2022/08/03 08:49:08;;;;;;;7.20;2.25;;;;;;;;;;5072310;28;20027;-66
2022/08/03 08:51:36;;;;;;;9.63;2.22;;;;;;;;;;5073100;28;20056;-66
2022/08/03 08:54:03;;;;;;;7.43;1.20;;;;;;;;;;5072905;28;20535;-66
2022/08/03 08:56:29;;;;;;;5.90;1.23;;;;;;;;;;5073350;28;20079;-65
2022/08/03 08:58:58;;;;;;;7.55;1.63;;;;;;;;;;5072086;28;20476;-66
2022/08/03 09:01:24;;;;;;;6.57;1.77;;;;;;;;;;5073798;28;20032;-65
2022/08/03 09:03:52;;;;;;;7.22;1.35;;;;;;;;;;5071695;28;20526;-66
2022/08/03 09:06:19;;;;;;;7.95;1.60;;;;;;;;;;5073208;28;20029;-65
2022/08/03 09:08:45;;;;;;;9.77;1.52;;;;;;;;;;5071486;28;20051;-65
2022/08/03 09:11:11;;;;;;;8.23;1.73;;;;;;;;;;5073272;28;20016;-66
2022/08/03 09:13:37;;;;;;;7.03;1.38;;;;;;;;;;5071481;28;20036;-65
2022/08/03 09:16:13;;;;;;;5.45;1.33;;;;;;;;;;5073214;28;20482;-66
2022/08/03 09:18:40;;;;;;;5.65;1.80;;;;;;;;;;5072674;28;20023;-66
2022/08/03 09:21:21;;;;;;;6.25;1.73;;;;;;;;;;5072912;28;20024;-66
2022/08/03 09:23:51;;;;;;;6.03;1.60;;;;;;;;;;5071044;28;20040;-67
2022/08/03 09:26:26;;;;;;;3.78;1.10;;;;;;;;;;5072934;28;20023;-67
2022/08/03 09:28:56;;;;;;;5.35;1.10;;;;;;;;;;5065275;28;20025;-67
2022/08/03 09:31:31;;;;;;;7.35;1.60;;;;;;;;;;5053099;28;20480;-67
2022/08/03 09:33:59;;;;;;;3.95;1.40;;;;;;;;;;5052864;28;20021;-69
2022/08/03 09:36:41;;;;;;;6.05;1.35;;;;;;;;;;5052832;28;20025;-69
2022/08/03 09:39:10;;;;;;;8.32;1.50;;;;;;;;;;5052539;28;20059;-69
2022/08/03 09:41:37;;;;;;;8.38;1.48;;;;;;;;;;5052574;28;20113;-68
2022/08/03 09:44:03;;;;;;;9.30;1.83;;;;;;;;;;5051912;28;20032;-69
2022/08/03 09:46:30;;;;;;;16.02;1.95;;;;;;;;;;5051300;28;20543;-69
2022/08/03 09:49:12;;;;;;;5.43;1.05;;;;;;;;;;5069250;28;20028;-69
2022/08/03 09:51:38;;;;;;;18.65;1.63;;;;;;;;;;5072030;28;20115;-69
2022/08/03 09:54:05;;;;;;;14.43;1.67;;;;;;;;;;5071977;28;20021;-70
2022/08/03 09:56:38;;;;;;;8.18;1.38;;;;;;;;;;5072141;28;20036;-69
2022/08/03 09:59:07;;;;;;;6.70;1.17;;;;;;;;;;5072332;28;20020;-68
2022/08/03 10:01:34;;;;;;;8.95;1.42;;;;;;;;;;5072377;28;20025;-68
2022/08/03 10:04:00;;;;;;;6.65;0.82;;;;;;;;;;5072150;28;20036;-68
2022/08/03 10:06:26;;;;;;;3.33;0.80;;;;;;;;;;5072618;28;20150;-68
2022/08/03 10:09:08;;;;;;;2.63;0.60;;;;;;;;;;5072078;28;20475;-67
2022/08/03 10:11:35;;;;;;;6.47;1.55;;;;;;;;;;5070466;28;20475;-67
2022/08/03 10:14:03;;;;;;;9.90;0.77;;;;;;;;;;5068498;28;20387;-67
2022/08/03 10:16:31;;;;;;;4.00;0.90;;;;;;;;;;5072081;28;20470;-68
2022/08/03 10:18:57;;;;;;;9.55;0.98;;;;;;;;;;5070587;28;20032;-67
2022/08/03 10:21:23;;;;;;;4.65;0.70;;;;;;;;;;5071930;28;20100;-67
2022/08/03 10:23:49;;;;;;;7.25;0.98;;;;;;;;;;5070768;28;20501;-66
2022/08/03 10:26:16;;;;;;;4.70;0.90;;;;;;;;;;5070230;28;20510;-67
2022/08/03 10:28:45;;;;;;;9.25;1.10;;;;;;;;;;5071668;28;20375;-67
2022/08/03 10:31:11;;;;;;;6.00;0.85;;;;;;;;;;5070461;28;20047;-68
2022/08/03 10:33:37;;;;;;;9.65;1.10;;;;;;;;;;5070138;28;20517;-69
2022/08/03 11:59:17;;;;;;;9.07;0.77;;;;;;;;;;5067872;28;20388;-66
2022/08/03 12:01:44;;;;;;;21.40;2.80;;;;;;;;;;5066335;28;20040;-65
2022/08/03 12:04:10;;;;;;;7.65;1.35;;;;;;;;;;5067738;28;20071;-66
2022/08/03 12:06:55;;;;;;;4.43;1.30;;;;;;;;;;5066475;28;20036;-68
2022/08/03 12:09:21;;;;;;;5.63;0.98;;;;;;;;;;5066950;28;20031;-67
2022/08/03 12:11:50;;;;;;;8.95;1.17;;;;;;;;;;5066736;28;20033;-68
2022/08/03 12:14:16;;;;;;;9.57;2.17;;;;;;;;;;5049717;28;20386;-69
2022/08/03 12:16:46;;;;;;;9.45;1.65;;;;;;;;;;5064808;28;20021;-67
2022/08/03 12:19:12;;;;;;;20.35;2.53;;;;;;;;;;5051529;28;20036;-68
2022/08/03 12:21:47;;;;;;;24.38;1.42;;;;;;;;;;5067289;28;20408;-67
2022/08/03 12:24:13;;;;;;;12.93;1.50;;;;;;;;;;5067054;28;20028;-67
2022/08/03 12:26:46;;;;;;;10.07;1.35;;;;;;;;;;5063421;28;20031;-67
2022/08/03 12:29:18;;;;;;;5.75;1.10;;;;;;;;;;5067221;28;20040;-67
2022/08/03 12:31:44;;;;;;;5.37;1.00;;;;;;;;;;5067067;28;20036;-67
2022/08/03 12:34:11;;;;;;;21.23;1.60;;;;;;;;;;5067052;28;20025;-67
2022/08/03 12:36:37;;;;;;;7.78;2.00;;;;;;;;;;5066829;28;20079;-67
2022/08/03 12:39:07;;;;;;;5.47;1.02;;;;;;;;;;5065153;28;20037;-68
2022/08/03 12:41:34;;;;;;;4.80;0.65;;;;;;;;;;5066118;28;20101;-67
2022/08/03 12:44:02;;;;;;;3.63;0.80;;;;;;;;;;5065430;28;20044;-67
2022/08/03 12:46:32;;;;;;;6.70;0.75;;;;;;;;;;5066500;28;20016;-68
2022/08/03 12:49:18;;;;;;;5.90;1.02;;;;;;;;;;5068494;28;20032;-68
2022/08/03 12:51:44;;;;;;;4.72;1.00;;;;;;;;;;5071860;28;20032;-68
2022/08/03 12:54:16;;;;;;;3.58;0.82;;;;;;;;;;5073142;28;20036;-67
2022/08/03 12:56:59;;;;;;;3.40;0.82;;;;;;;;;;5072026;28;20020;-68
2022/08/03 12:59:26;;;;;;;6.22;1.10;;;;;;;;;;5084684;28;20051;-68
2022/08/03 13:01:52;;;;;;;5.32;0.95;;;;;;;;;;5083468;28;20023;-67
2022/08/03 13:04:38;;;;;;;15.90;3.22;;;;;;;;;;5068839;28;20017;-67
2022/08/03 13:07:05;;;;;;;4.18;1.20;;;;;;;;;;5046337;28;20084;-67
2022/08/03 13:09:41;;;;;;;6.50;0.82;;;;;;;;;;5040451;28;20113;-68
2022/08/03 13:12:13;;;;;;;10.48;1.52;;;;;;;;;;5072830;28;20028;-68
2022/08/03 13:14:40;;;;;;;2.20;0.85;;;;;;;;;;5069111;28;20483;-68
2022/08/03 13:17:06;;;;;;;5.63;0.90;;;;;;;;;;5065635;28;20025;-67
2022/08/03 13:19:33;;;;;;;8.00;0.90;;;;;;;;;;5056791;28;20268;-68
2022/08/03 13:21:59;;;;;;;4.57;1.00;;;;;;;;;;5052817;28;20017;-67
2022/08/03 13:24:25;;;;;;;8.50;1.92;;;;;;;;;;5055575;28;20396;-68
2022/08/03 13:26:51;;;;;;;6.75;1.08;;;;;;;;;;5052581;28;20347;-68
2022/08/03 13:29:17;;;;;;;2.67;0.80;;;;;;;;;;5062390;28;20032;-68
2022/08/03 13:31:43;;;;;;;5.28;1.27;;;;;;;;;;5069783;28;20042;-68
2022/08/03 13:34:09;;;;;;;7.90;1.40;;;;;;;;;;5072602;28;20082;-68
2022/08/03 13:36:35;;;;;;;10.68;1.20;;;;;;;;;;5070524;28;20100;-68
2022/08/03 13:39:01;;;;;;;7.85;1.08;;;;;;;;;;5071249;28;20328;-68
2022/08/03 13:41:27;;;;;;;4.80;0.75;;;;;;;;;;5070552;28;20020;-68
2022/08/03 13:43:55;;;;;;;5.88;1.10;;;;;;;;;;5071403;28;20024;-68
2022/08/03 13:46:21;;;;;;;4.50;0.85;;;;;;;;;;5067661;28;20490;-68
2022/08/03 13:48:47;;;;;;;8.57;1.25;;;;;;;;;;5053021;28;20123;-68
2022/08/03 13:51:13;;;;;;;3.92;1.00;;;;;;;;;;5060402;28;20034;-68
2022/08/03 13:53:39;;;;;;;3.30;0.80;;;;;;;;;;5054015;28;20049;-68
2022/08/03 13:56:05;;;;;;;7.85;1.20;;;;;;;;;;5049196;28;20093;-68
2022/08/03 13:58:31;;;;;;;4.72;1.20;;;;;;;;;;5052377;28;20064;-68
2022/08/03 14:00:58;;;;;;;4.38;0.90;;;;;;;;;;5049963;28;20021;-67
2022/08/03 14:03:24;;;;;;;6.43;0.93;;;;;;;;;;5054444;28;20507;-68
2022/08/03 14:05:50;;;;;;;4.97;1.00;;;;;;;;;;5068348;28;20036;-67
2022/08/03 14:08:17;;;;;;;4.38;0.80;;;;;;;;;;5070821;28;20493;-67
2022/08/03 14:10:43;;;;;;;1.42;0.73;;;;;;;;;;5054732;28;20028;-68
2022/08/03 14:13:10;;;;;;;2.00;0.40;;;;;;;;;;5055279;28;20025;-68
2022/08/03 14:15:36;;;;;;;4.47;0.40;;;;;;;;;;5053924;28;20029;-72
2022/08/03 14:18:02;;;;;;;1.60;0.40;;;;;;;;;;5056660;28;20059;-68
2022/08/03 14:20:28;;;;;;;1.95;0.40;;;;;;;;;;5048162;28;20086;-66
2022/08/03 14:33:27;;;;;;;2.08;0.38;;;;;;;;;;5067964;28;20441;-67
2022/08/03 14:35:53;;;;;;;2.10;0.50;;;;;;;;;;5069422;28;20395;-74
2022/08/03 14:38:19;;;;;;;1.77;0.38;;;;;;;;;;5067592;28;20423;-69
2022/08/03 14:40:45;;;;;;;2.63;0.50;;;;;;;;;;5061760;28;20024;-69
2022/08/03 14:43:11;;;;;;;2.28;0.60;;;;;;;;;;5067507;28;20032;-69
2022/08/03 14:45:38;;;;;;;2.95;0.60;;;;;;;;;;5067488;28;20025;-70
2022/08/03 14:48:04;;;;;;;4.68;0.70;;;;;;;;;;5065753;28;20028;-69
2022/08/03 14:50:30;;;;;;;3.92;0.68;;;;;;;;;;5065964;28;20033;-68
2022/08/03 14:52:56;;;;;;;4.30;0.73;;;;;;;;;;5067473;28;20029;-70
2022/08/03 14:55:22;;;;;;;5.28;0.90;;;;;;;;;;5065575;28;20025;-68
2022/08/03 14:57:48;;;;;;;1.83;1.00;;;;;;;;;;5066470;28;20025;-69
2022/08/03 15:00:15;;;;;;;2.38;0.55;;;;;;;;;;5066800;28;20029;-68
2022/08/03 15:02:41;;;;;;;2.95;0.68;;;;;;;;;;5067740;28;20025;-70
2022/08/03 15:05:07;;;;;;;1.88;0.60;;;;;;;;;;5064221;28;20062;-68
2022/08/03 15:07:33;;;;;;;3.75;1.00;;;;;;;;;;5067070;28;20032;-68
2022/08/03 15:10:00;;;;;;;7.07;1.02;;;;;;;;;;5064945;28;20115;-69
2022/08/03 15:12:26;;;;;;;4.78;0.82;;;;;;;;;;5067362;28;20025;-68
2022/08/03 15:14:52;;;;;;;5.70;1.50;;;;;;;;;;5066024;28;20032;-69
2022/08/03 15:17:18;;;;;;;9.13;1.05;;;;;;;;;;5064935;28;20029;-70
2022/08/03 15:19:44;;;;;;;5.18;1.63;;;;;;;;;;5066615;28;20479;-69
2022/08/03 15:22:10;;;;;;;7.35;0.80;;;;;;;;;;5064767;28;20021;-71
2022/08/03 15:24:36;;;;;;;4.10;1.83;;;;;;;;;;5066228;28;20031;-72
2022/08/03 15:27:02;;;;;;;4.70;1.35;;;;;;;;;;5066616;28;20016;-71
2022/08/03 15:29:28;;;;;;;13.43;1.08;;;;;;;;;;5072820;28;20037;-72
2022/08/03 15:31:54;;;;;;;4.65;0.93;;;;;;;;;;5083494;28;20045;-71
2022/08/03 15:34:20;;;;;;;5.40;0.80;;;;;;;;;;5076261;28;20013;-72
2022/08/03 15:36:46;;;;;;;7.15;0.70;;;;;;;;;;5066587;28;20055;-71
2022/08/03 15:39:12;;;;;;;3.80;0.50;;;;;;;;;;5063976;28;20051;-71
2022/08/03 15:41:39;;;;;;;3.53;0.70;;;;;;;;;;5064178;28;20028;-71
2022/08/03 15:44:05;;;;;;;7.05;0.93;;;;;;;;;;5054366;28;20024;-72
2022/08/03 15:46:31;;;;;;;5.50;0.93;;;;;;;;;;5049105;28;20029;-71
2022/08/03 15:48:57;;;;;;;4.65;0.85;;;;;;;;;;5052619;28;20096;-71
2022/08/03 15:51:23;;;;;;;6.32;0.63;;;;;;;;;;5069614;28;20032;-68
2022/08/03 15:53:49;;;;;;;3.15;0.90;;;;;;;;;;5069056;28;20592;-69
2022/08/03 15:56:15;;;;;;;3.38;0.80;;;;;;;;;;5056244;28;20033;-68
2022/08/03 15:58:41;;;;;;;5.60;0.55;;;;;;;;;;5052255;28;20045;-68
2022/08/03 16:01:07;;;;;;;9.40;1.17;;;;;;;;;;5064265;28;20459;-69
2022/08/03 16:03:34;;;;;;;6.85;0.82;;;;;;;;;;5046250;28;20060;-68
2022/08/03 16:06:03;;;;;;;3.72;0.63;;;;;;;;;;5040272;28;20166;-69
2022/08/03 16:08:29;;;;;;;4.32;0.70;;;;;;;;;;5058140;28;20025;-69
2022/08/03 16:10:55;;;;;;;4.05;0.98;;;;;;;;;;5067829;28;20604;-68
2022/08/03 16:13:21;;;;;;;5.13;0.70;;;;;;;;;;5051220;28;20731;-68
2022/08/03 16:15:47;;;;;;;3.55;0.73;;;;;;;;;;5065477;28;20032;-68
2022/08/03 16:18:14;;;;;;;2.97;0.80;;;;;;;;;;5050840;28;20030;-68